Time;durP1;ratioP1;P1;durP2;ratioP2;P2;SDS_P1;SDS_P2;PMS_P1;PMS_P2;Temp;Humidity;BMP_temperature;BMP_pressure;BME280_temperature;BME280_humidity;BME280_pressure;Samples;Min_cycle;Max_cycle;Signal;HPM_P1;HPM_P2
2022/09/07 00:00:43;;;;;;;4.90;1.48;;;22.10;99.90;;;-144.05;44.33;125687.94;5021865;28;20466;-90
2022/09/07 00:03:09;;;;;;;7.78;1.55;;;22.00;99.90;;;-144.05;44.01;125687.94;5003751;28;20032;-89
2022/09/07 00:05:49;;;;;;;6.82;1.30;;;22.00;99.90;;;-144.05;43.80;125687.94;4994441;28;20597;-87
2022/09/07 00:08:21;;;;;;;11.70;1.38;;;22.20;99.90;;;-144.05;44.94;125687.94;5010662;28;20026;-88
2022/09/07 00:11:01;;;;;;;8.70;1.35;;;22.10;99.90;;;-144.05;48.29;125687.94;4996250;28;20097;-87
2022/09/07 00:13:34;;;;;;;8.90;1.00;;;21.70;99.90;;;-144.05;51.52;125687.94;4996667;28;20041;-89
2022/09/07 00:16:08;;;;;;;3.60;0.77;;;21.10;99.90;;;-144.05;54.26;125687.94;4997152;28;20031;-86
2022/09/07 00:18:34;;;;;;;3.88;0.68;;;20.60;99.90;;;-144.05;56.04;125687.94;5013889;28;20092;-88
2022/09/07 00:21:09;;;;;;;0.82;0.40;;;20.20;99.90;;;-144.05;58.72;125687.94;5013034;28;20026;-85
2022/09/07 00:23:38;;;;;;;5.95;0.68;;;19.90;99.90;;;-144.05;58.24;125687.94;4997141;28;20026;-89
2022/09/07 00:26:13;;;;;;;1.45;0.40;;;19.70;99.90;;;-144.05;59.74;125687.94;4998272;28;20492;-88
2022/09/07 00:28:43;;;;;;;1.80;0.67;;;19.60;99.90;;;-144.05;59.82;125687.94;4997993;28;20077;-88
2022/09/07 00:31:24;;;;;;;8.05;0.68;;;19.40;99.90;;;-144.05;61.39;125687.94;4997539;28;20026;-88
2022/09/07 00:33:53;;;;;;;5.40;0.80;;;19.30;99.90;;;-144.05;62.03;125687.94;4998848;28;20035;-86
2022/09/07 00:36:21;;;;;;;4.70;0.80;;;19.20;99.90;;;-144.05;62.32;125687.94;4998016;28;20490;-88
2022/09/07 00:38:48;;;;;;;8.60;0.73;;;19.10;99.90;;;-144.05;62.54;125687.94;4997657;28;20038;-88
2022/09/07 00:41:17;;;;;;;9.82;0.75;;;19.10;99.90;;;-144.05;63.06;125687.94;4998957;28;20026;-86
2022/09/07 00:43:52;;;;;;;2.05;0.50;;;19.00;99.90;;;-144.05;63.35;125687.94;4998073;28;20447;-87
2022/09/07 00:46:26;;;;;;;2.78;0.45;;;19.00;99.90;;;-144.05;63.52;125687.94;4998670;28;20467;-85
2022/09/07 00:49:16;;;;;;;4.80;1.17;;;19.00;99.90;;;-144.05;64.58;125687.94;4998503;28;20027;-89
2022/09/07 00:52:02;;;;;;;2.92;0.80;;;18.90;99.90;;;-144.05;64.72;125687.94;4998904;28;20118;-89
2022/09/07 00:54:39;;;;;;;7.32;1.00;;;18.90;99.90;;;-144.05;65.41;125687.94;4998564;28;20188;-88
2022/09/07 00:57:07;;;;;;;4.32;0.50;;;18.80;99.90;;;-144.05;66.34;125687.94;4998493;28;20030;-88
2022/09/07 00:59:51;;;;;;;4.95;1.05;;;18.70;99.90;;;-144.05;66.83;125687.94;4998487;28;20031;-88
2022/09/07 01:02:19;;;;;;;4.28;0.90;;;18.70;99.90;;;-144.05;67.13;125687.94;4998392;28;20116;-87
2022/09/07 01:04:59;;;;;;;4.07;1.23;;;18.70;99.90;;;-144.05;68.23;125687.94;5016391;28;20398;-87
2022/09/07 01:07:25;;;;;;;6.85;1.02;;;18.60;99.90;;;-144.05;68.43;125687.94;5002141;28;20038;-87
2022/09/07 01:09:53;;;;;;;5.53;1.13;;;18.60;99.90;;;-144.05;70.91;125687.94;5001370;28;20030;-85
2022/09/07 01:12:19;;;;;;;8.10;1.00;;;18.50;99.90;;;-144.05;71.21;125687.94;4999630;28;20568;-86
2022/09/07 01:14:52;;;;;;;4.00;1.35;;;18.50;99.90;;;-144.05;73.26;125687.94;5015226;28;20068;-85
2022/09/07 01:18:31;;;;;;;7.28;1.08;;;18.40;99.90;;;-144.05;74.25;125687.94;5016400;28;20067;-88
2022/09/07 01:21:30;;;;;;;3.63;1.00;;;18.30;99.90;;;-144.05;75.63;125687.94;4960196;28;20050;-89
2022/09/07 01:24:23;;;;;;;5.07;1.10;;;18.10;99.90;;;-144.05;76.45;125687.94;4996582;28;20026;-89
2022/09/07 01:27:21;;;;;;;3.55;0.98;;;18.00;99.90;;;-144.05;77.84;125687.94;4996954;28;20031;-89
2022/09/07 01:30:08;;;;;;;4.93;1.40;;;17.90;99.90;;;-144.05;78.73;125687.94;4997556;28;20038;-90
2022/09/07 01:33:19;;;;;;;4.78;1.58;;;17.80;99.90;;;-144.05;79.10;125687.94;4997505;28;20061;-90
2022/09/07 01:36:15;;;;;;;4.00;1.17;;;17.80;99.90;;;-144.05;80.34;125687.94;4998372;28;20065;-90
2022/09/07 01:38:52;;;;;;;3.95;1.27;;;17.70;99.90;;;-144.05;81.89;125687.94;4996777;28;20042;-90
2022/09/07 01:42:07;;;;;;;4.85;1.48;;;17.60;99.90;;;-144.05;83.55;125687.94;4995684;28;20068;-92
2022/09/07 01:44:55;;;;;;;4.63;1.20;;;17.50;99.90;;;-144.05;84.72;125687.94;4996347;28;20034;-90
2022/09/07 01:47:44;;;;;;;3.47;1.30;;;17.40;99.90;;;-144.05;85.17;125687.94;4997355;28;20026;-91
2022/09/07 01:50:27;;;;;;;2.97;1.77;;;17.40;99.90;;;-144.05;86.15;125687.94;5012071;28;20437;-88
2022/09/07 01:53:40;;;;;;;9.13;2.00;;;17.30;99.90;;;-144.05;86.82;125687.94;4995597;28;20065;-89
2022/09/07 01:56:44;;;;;;;6.28;1.73;;;17.30;99.90;;;-144.05;87.52;125687.94;4995637;28;20022;-88
2022/09/07 01:59:34;;;;;;;5.68;1.50;;;17.20;99.90;;;-144.05;87.73;125687.94;4996147;28;20031;-88
2022/09/07 02:02:12;;;;;;;5.38;1.25;;;17.20;99.90;;;-144.05;87.45;125687.94;4995289;28;20045;-89
2022/09/07 02:05:07;;;;;;;3.72;1.20;;;17.20;99.90;;;-144.05;87.46;125687.94;5011831;28;20030;-91
2022/09/07 02:07:59;;;;;;;2.83;1.50;;;17.20;99.90;;;-144.05;87.43;125687.94;4995221;28;20058;-89
2022/09/07 02:10:45;;;;;;;2.53;1.17;;;17.20;99.90;;;-144.05;87.38;125687.94;4995842;28;20513;-88
2022/09/07 02:13:29;;;;;;;5.75;1.65;;;17.30;99.90;;;-144.05;87.34;125687.94;4995028;28;20050;-89
2022/09/07 02:16:28;;;;;;;2.85;1.08;;;17.30;99.90;;;-144.05;87.53;125687.94;4995049;28;20061;-90
2022/09/07 02:19:19;;;;;;;3.20;1.00;;;17.30;99.90;;;-144.05;87.75;125687.94;5007534;28;20034;-87
2022/09/07 02:21:59;;;;;;;4.13;1.20;;;17.30;99.90;;;-144.05;88.00;125687.94;5010878;28;20026;-89
2022/09/07 02:24:40;;;;;;;7.30;1.15;;;17.30;99.90;;;-144.05;87.97;125687.94;4994744;28;20106;-90
2022/09/07 02:27:21;;;;;;;3.42;1.30;;;17.30;99.90;;;-144.05;87.52;125687.94;4995207;28;20085;-89
2022/09/07 02:29:47;;;;;;;3.50;1.20;;;17.30;99.90;;;-144.05;88.13;125687.94;5010810;28;20041;-90
2022/09/07 02:32:13;;;;;;;4.65;0.88;;;17.40;99.90;;;-144.05;88.51;125687.94;5011169;28;20089;-90
2022/09/07 02:34:39;;;;;;;5.18;0.80;;;17.50;99.90;;;-144.05;87.68;125687.94;5010727;28;20031;-91
2022/09/07 02:37:11;;;;;;;3.13;0.98;;;17.40;99.90;;;-144.05;87.80;125687.94;4994746;28;20420;-89
2022/09/07 02:39:39;;;;;;;2.25;1.05;;;17.50;99.90;;;-144.05;87.75;125687.94;5011414;28;20058;-91
2022/09/07 02:42:05;;;;;;;2.92;1.10;;;17.50;99.90;;;-144.05;88.02;125687.94;4995119;28;20033;-89
2022/09/07 02:44:39;;;;;;;3.92;1.45;;;17.40;99.90;;;-144.05;87.31;125687.94;5011480;28;20044;-90
2022/09/07 02:47:53;;;;;;;2.17;0.80;;;17.50;99.90;;;-144.05;87.47;125687.94;5011821;28;20057;-92
2022/09/07 02:51:48;;;;;;;2.05;1.00;;;17.40;99.90;;;-144.05;87.68;125687.94;4977858;28;20042;-89
2022/09/07 02:54:37;;;;;;;2.53;0.98;;;17.40;99.90;;;-144.05;87.78;125687.94;4949896;28;20478;-88
2022/09/07 02:57:25;;;;;;;1.35;0.90;;;17.40;99.90;;;-144.05;87.52;125687.94;4995630;28;20223;-88
2022/09/07 03:00:17;;;;;;;1.90;0.80;;;17.40;99.90;;;-144.05;87.42;125687.94;4995836;28;20068;-89
2022/09/07 03:03:05;;;;;;;3.60;1.10;;;17.30;99.90;;;-144.05;87.65;125687.94;4996137;28;20030;-86
2022/09/07 03:05:59;;;;;;;3.53;1.25;;;17.30;99.90;;;-144.05;88.21;125687.94;4995201;28;20058;-87
2022/09/07 03:08:40;;;;;;;2.30;0.98;;;17.30;99.90;;;-144.05;87.91;125687.94;5000110;28;20039;-89
2022/09/07 03:11:07;;;;;;;4.55;1.40;;;17.20;99.90;;;-144.05;87.58;125687.94;4997098;28;20031;-89
2022/09/07 03:13:34;;;;;;;3.42;1.35;;;17.20;99.90;;;-144.05;87.43;125687.94;4996887;28;20030;-90
2022/09/07 03:16:00;;;;;;;3.25;1.10;;;17.20;99.90;;;-144.05;87.06;125687.94;4997208;28;20034;-92
2022/09/07 03:18:27;;;;;;;2.95;0.90;;;17.10;99.90;;;-144.05;87.17;125687.94;5013846;28;20026;-90
2022/09/07 03:20:55;;;;;;;1.80;0.95;;;17.10;99.90;;;-144.05;87.25;125687.94;5013104;28;20391;-91
2022/09/07 03:23:21;;;;;;;3.78;1.25;;;17.00;99.90;;;-144.05;87.52;125687.94;4997336;28;20030;-91
2022/09/07 03:25:50;;;;;;;2.60;1.30;;;16.90;99.90;;;-144.05;87.73;125687.94;5013944;28;20173;-90
2022/09/07 03:28:16;;;;;;;1.10;0.85;;;16.80;99.90;;;-144.05;87.92;125687.94;4998196;28;20057;-90
2022/09/07 03:30:46;;;;;;;2.85;1.15;;;16.70;99.90;;;-144.05;88.27;125687.94;4998242;28;20382;-91
2022/09/07 03:33:15;;;;;;;2.58;1.08;;;16.70;99.90;;;-144.05;88.63;125687.94;4998139;28;20137;-91
2022/09/07 03:35:56;;;;;;;1.90;0.90;;;16.60;99.90;;;-144.05;88.77;125687.94;4998219;28;20030;-89
2022/09/07 03:38:23;;;;;;;3.38;1.10;;;16.60;99.90;;;-144.05;89.06;125687.94;4997997;28;20065;-90
2022/09/07 03:41:06;;;;;;;5.80;1.80;;;16.50;99.90;;;-144.05;89.69;125687.94;5014116;28;20031;-91
2022/09/07 03:43:36;;;;;;;2.00;1.30;;;16.50;99.90;;;-144.05;89.49;125687.94;4997713;28;20109;-90
2022/09/07 03:46:06;;;;;;;2.97;1.40;;;16.40;99.90;;;-144.05;89.63;125687.94;5007693;28;20094;-89
2022/09/07 03:48:35;;;;;;;3.53;1.60;;;16.40;99.90;;;-144.05;89.93;125687.94;5018410;28;20026;-93
2022/09/07 03:51:07;;;;;;;3.15;1.20;;;16.40;99.90;;;-144.05;90.06;125687.94;5019676;28;20023;-89
2022/09/07 03:53:39;;;;;;;3.45;1.67;;;16.40;99.90;;;-144.05;90.27;125687.94;5035931;28;20027;-90
2022/09/07 03:56:15;;;;;;;1.60;1.30;;;16.40;99.90;;;-144.05;90.16;125687.94;5016938;28;20054;-92
2022/09/07 03:58:42;;;;;;;;;;;16.30;99.90;;;-144.05;90.52;125687.94;5001057;28;20041;-92
2022/09/07 04:01:22;;;;;;;2.53;1.38;;;16.30;99.90;;;-144.05;90.38;125687.94;5014884;28;19925;-90
2022/09/07 04:03:51;;;;;;;3.50;1.70;;;16.30;99.90;;;-144.05;90.63;125687.94;4998625;28;20449;-90
2022/09/07 04:06:18;;;;;;;3.30;1.65;;;16.20;99.90;;;-144.05;90.82;125687.94;5015346;28;20443;-91
2022/09/07 04:08:45;;;;;;;2.88;1.77;;;16.20;99.90;;;-144.05;90.80;125687.94;4998104;28;20030;-90
2022/09/07 04:11:17;;;;;;;3.53;1.65;;;16.20;99.90;;;-144.05;91.20;125687.94;4998475;28;20034;-91
2022/09/07 04:13:45;;;;;;;5.50;1.90;;;16.20;99.90;;;-144.05;91.25;125687.94;4998402;28;20034;-91
2022/09/07 04:16:19;;;;;;;3.70;2.20;;;16.20;99.90;;;-144.05;91.75;125687.94;5015105;28;20043;-91
2022/09/07 04:18:48;;;;;;;6.28;2.45;;;16.10;99.90;;;-144.05;91.99;125687.94;5014422;28;20089;-91
2022/09/07 04:21:17;;;;;;;6.15;2.00;;;16.20;99.90;;;-144.05;91.98;125687.94;4998109;28;20026;-90
2022/09/07 04:23:46;;;;;;;2.88;1.95;;;16.20;99.90;;;-144.05;91.96;125687.94;4997910;28;20030;-91
2022/09/07 04:26:24;;;;;;;3.40;2.08;;;16.20;99.90;;;-144.05;92.03;125687.94;5013979;28;20033;-90
2022/09/07 04:28:53;;;;;;;2.90;2.30;;;16.20;99.90;;;-144.05;92.06;125687.94;4997761;28;20034;-92
2022/09/07 04:31:27;;;;;;;3.65;2.13;;;16.20;99.90;;;-144.05;92.26;125687.94;5014868;28;20117;-91
2022/09/07 04:33:55;;;;;;;4.82;2.13;;;16.10;99.90;;;-144.05;92.29;125687.94;4997853;28;20466;-93
2022/09/07 04:36:24;;;;;;;2.92;1.95;;;16.10;99.90;;;-144.05;92.36;125687.94;4996450;28;20065;-91
2022/09/07 04:39:01;;;;;;;5.32;2.33;;;16.10;99.90;;;-144.05;92.15;125687.94;4997308;28;20473;-90
2022/09/07 04:41:34;;;;;;;4.18;2.40;;;16.00;99.90;;;-144.05;92.34;125687.94;5013853;28;20058;-90
2022/09/07 04:44:03;;;;;;;4.32;2.40;;;15.90;99.90;;;-144.05;92.42;125687.94;4997904;28;20113;-88
2022/09/07 04:46:35;;;;;;;5.25;2.58;;;15.90;99.90;;;-144.05;92.53;125687.94;4997888;28;20030;-86
2022/09/07 04:49:12;;;;;;;3.75;2.20;;;15.90;99.90;;;-144.05;92.95;125687.94;4996909;28;20034;-89
2022/09/07 04:51:41;;;;;;;3.65;2.53;;;15.80;99.90;;;-144.05;92.85;125687.94;4996851;28;20030;-87
2022/09/07 04:54:09;;;;;;;3.65;2.15;;;15.80;99.90;;;-144.05;93.19;125687.94;4997071;28;20106;-89
2022/09/07 04:56:35;;;;;;;4.13;2.33;;;15.80;99.90;;;-144.05;93.20;125687.94;5012075;28;20034;-87
2022/09/07 04:59:02;;;;;;;4.13;2.80;;;15.90;99.90;;;-144.05;93.20;125687.94;5001004;28;20042;-89
2022/09/07 05:01:29;;;;;;;6.28;3.05;;;15.80;99.90;;;-144.05;93.17;125687.94;4996992;28;20030;-89
2022/09/07 05:03:58;;;;;;;4.68;2.97;;;15.80;99.90;;;-144.05;93.39;125687.94;4996645;28;20027;-91
2022/09/07 05:06:24;;;;;;;6.60;3.22;;;15.80;99.90;;;-144.05;93.65;125687.94;4996944;28;20030;-91
2022/09/07 05:08:53;;;;;;;6.95;3.10;;;15.90;99.90;;;-144.05;94.03;125687.94;4996642;28;20431;-88
2022/09/07 05:11:22;;;;;;;4.60;2.95;;;15.90;99.90;;;-144.05;93.87;125687.94;4996298;28;20022;-89
2022/09/07 05:13:49;;;;;;;4.32;2.70;;;16.00;99.90;;;-144.05;93.70;125687.94;4996288;28;20022;-89
2022/09/07 05:16:22;;;;;;;5.35;3.53;;;16.00;99.90;;;-144.05;93.60;125687.94;5011816;28;20360;-88
2022/09/07 05:19:01;;;;;;;6.85;4.00;;;16.00;99.90;;;-144.05;93.62;125687.94;4996518;28;20023;-89
2022/09/07 05:21:31;;;;;;;7.65;3.50;;;16.10;99.90;;;-144.05;93.50;125687.94;4996675;28;20046;-90
2022/09/07 05:24:00;;;;;;;4.80;2.78;;;16.10;99.90;;;-144.05;93.51;125687.94;4996688;28;20366;-91
2022/09/07 05:26:31;;;;;;;8.30;3.40;;;16.10;99.90;;;-144.05;93.59;125687.94;4996625;28;20031;-89
2022/09/07 05:29:01;;;;;;;5.35;3.17;;;16.10;99.90;;;-144.05;93.65;125687.94;4996744;28;20034;-87
2022/09/07 05:31:27;;;;;;;5.47;3.50;;;16.10;99.90;;;-144.05;93.81;125687.94;5013092;28;20034;-88
2022/09/07 05:33:58;;;;;;;5.32;3.03;;;16.10;99.90;;;-144.05;93.90;125687.94;4996818;28;20034;-88
2022/09/07 05:36:28;;;;;;;4.38;2.88;;;16.10;99.90;;;-144.05;93.74;125687.94;4996707;28;20050;-85
2022/09/07 05:38:58;;;;;;;6.47;3.50;;;16.20;99.90;;;-144.05;93.74;125687.94;5013415;28;20494;-88
2022/09/07 05:41:26;;;;;;;6.18;3.15;;;16.20;99.90;;;-144.05;93.80;125687.94;4997882;28;20144;-88
2022/09/07 05:43:54;;;;;;;4.35;2.75;;;16.30;99.90;;;-144.05;93.81;125687.94;4997694;28;20030;-89
2022/09/07 05:46:22;;;;;;;3.20;2.60;;;16.30;99.90;;;-144.05;93.67;125687.94;5014312;28;20026;-89
2022/09/07 05:48:49;;;;;;;4.47;2.33;;;16.40;99.90;;;-144.05;93.56;125687.94;4997896;28;20030;-89
2022/09/07 05:51:15;;;;;;;4.93;2.60;;;16.40;99.90;;;-144.05;93.14;125687.94;4998375;28;20034;-88
2022/09/07 05:53:46;;;;;;;7.05;2.83;;;16.50;99.90;;;-144.05;93.20;125687.94;5014858;28;20041;-89
2022/09/07 05:56:13;;;;;;;4.45;2.42;;;16.60;99.90;;;-144.05;93.12;125687.94;4999799;28;20030;-90
2022/09/07 05:58:39;;;;;;;5.72;2.85;;;16.60;99.90;;;-144.05;93.05;125687.94;4998575;28;20057;-88
2022/09/07 06:01:11;;;;;;;6.07;3.58;;;16.70;99.90;;;-144.05;93.37;125687.94;4998539;28;20030;-86
2022/09/07 06:03:41;;;;;;;8.10;2.70;;;16.80;99.90;;;-144.05;93.30;125687.94;4998734;28;20034;-89
2022/09/07 06:06:15;;;;;;;5.00;2.33;;;16.90;99.90;;;-144.05;93.58;125687.94;5013606;28;20074;-90
2022/09/07 06:08:52;;;;;;;3.63;2.75;;;17.10;99.90;;;-144.05;94.01;125687.94;5013645;28;20061;-88
2022/09/07 06:11:23;;;;;;;4.57;2.80;;;17.30;99.90;;;-144.05;93.47;125687.94;5014173;28;20085;-92
2022/09/07 06:13:49;;;;;;;10.32;3.03;;;17.50;99.90;;;-144.05;92.57;125687.94;4995636;28;20478;-90
2022/09/07 06:16:18;;;;;;;5.40;3.22;;;17.60;99.90;;;-144.05;92.31;125687.94;4998203;28;20116;-89
2022/09/07 06:18:53;;;;;;;9.25;3.28;;;17.80;99.90;;;-144.05;91.50;125687.94;4998240;28;20379;-90
2022/09/07 06:21:22;;;;;;;6.47;3.05;;;18.00;99.90;;;-144.05;90.65;125687.94;4997489;28;20042;-89
2022/09/07 06:23:50;;;;;;;9.98;3.28;;;18.10;99.90;;;-144.05;89.64;125687.94;4997445;28;20026;-91
2022/09/07 06:26:18;;;;;;;4.32;2.92;;;18.30;99.90;;;-144.05;88.32;125687.94;4997377;28;20117;-91
2022/09/07 06:28:49;;;;;;;3.53;1.95;;;18.40;99.90;;;-144.05;87.08;125687.94;4997296;28;20038;-90
2022/09/07 06:31:21;;;;;;;5.43;1.80;;;18.60;99.90;;;-144.05;85.89;125687.94;4997547;28;20030;-91
2022/09/07 06:33:49;;;;;;;5.05;2.50;;;18.70;99.90;;;-144.05;84.24;125687.94;5014027;28;20034;-91
2022/09/07 06:36:20;;;;;;;4.18;2.10;;;18.80;99.90;;;-144.05;82.49;125687.94;4997985;28;20026;-88
2022/09/07 06:38:48;;;;;;;5.57;2.40;;;19.10;99.90;;;-144.05;80.04;125687.94;4998657;28;20030;-88
2022/09/07 06:41:27;;;;;;;6.88;2.05;;;19.40;99.90;;;-144.05;77.63;125687.94;4999302;28;20057;-87
2022/09/07 06:44:00;;;;;;;3.47;1.77;;;19.70;99.90;;;-144.05;75.21;125687.94;4998884;28;20149;-87
2022/09/07 06:46:26;;;;;;;2.42;1.50;;;19.90;99.90;;;-144.05;74.90;125687.94;5004128;28;20038;-87
2022/09/07 06:48:55;;;;;;;5.03;1.30;;;20.30;99.90;;;-144.05;71.94;125687.94;5006384;28;20053;-90
2022/09/07 06:51:27;;;;;;;2.25;1.50;;;20.50;99.90;;;-144.05;70.37;125687.94;4999672;28;20049;-89
2022/09/07 06:53:56;;;;;;;2.03;1.27;;;20.50;99.90;;;-144.05;69.96;125687.94;4998042;28;20030;-90
2022/09/07 06:56:26;;;;;;;6.47;1.73;;;20.30;99.90;;;-144.05;71.17;125687.94;4997553;28;20262;-88
2022/09/07 06:58:56;;;;;;;4.85;2.13;;;20.10;99.90;;;-144.05;73.38;125687.94;4999074;28;20032;-89
2022/09/07 07:01:48;;;;;;;2.92;1.55;;;19.90;99.90;;;-144.05;74.53;125687.94;4998357;28;20058;-88
2022/09/07 07:04:14;;;;;;;4.43;1.77;;;20.00;99.90;;;-144.05;74.08;125687.94;4998950;28;20180;-89
2022/09/07 07:06:40;;;;;;;3.67;1.90;;;20.20;99.90;;;-144.05;72.68;125687.94;5015185;28;20039;-89
2022/09/07 07:09:12;;;;;;;3.25;1.45;;;20.40;99.90;;;-144.05;72.09;125687.94;4999142;28;20030;-89
2022/09/07 07:11:39;;;;;;;2.70;1.25;;;20.70;99.90;;;-144.05;68.84;125687.94;4998613;28;20026;-91
2022/09/07 07:14:05;;;;;;;2.53;1.40;;;20.80;99.90;;;-144.05;69.65;125687.94;5015233;28;20121;-91
2022/09/07 07:16:31;;;;;;;5.10;1.80;;;21.00;99.90;;;-144.05;69.87;125687.94;5013278;28;20045;-89
2022/09/07 07:18:57;;;;;;;2.92;1.70;;;21.20;99.90;;;-144.05;66.75;125687.94;4997493;28;20507;-90
2022/09/07 07:21:23;;;;;;;2.17;1.40;;;21.30;99.90;;;-144.05;67.25;125687.94;5016926;28;20065;-89
2022/09/07 07:23:52;;;;;;;2.38;1.40;;;21.40;99.90;;;-144.05;67.83;125687.94;5008259;28;20414;-92
2022/09/07 07:26:26;;;;;;;2.38;1.00;;;21.50;99.90;;;-144.05;65.23;125687.94;5029113;28;20053;-90
2022/09/07 07:28:55;;;;;;;3.63;1.60;;;21.80;99.90;;;-144.05;63.86;125687.94;5011314;28;20037;-89
2022/09/07 07:31:25;;;;;;;2.92;1.35;;;22.30;99.90;;;-144.05;62.51;125687.94;5003074;28;20116;-89
2022/09/07 07:33:53;;;;;;;6.07;1.60;;;22.30;99.90;;;-144.05;62.79;125687.94;5001813;28;20026;-89
2022/09/07 07:36:25;;;;;;;5.03;1.20;;;22.60;99.90;;;-144.05;60.56;125687.94;5001466;28;20034;-90
2022/09/07 07:38:55;;;;;;;2.63;1.50;;;22.70;99.90;;;-144.05;61.42;125687.94;5000170;28;20586;-90
2022/09/07 07:41:29;;;;;;;3.92;1.67;;;22.70;99.90;;;-144.05;60.71;125687.94;5002838;28;20045;-89
2022/09/07 07:43:57;;;;;;;5.38;1.77;;;22.80;99.90;;;-144.05;60.92;125687.94;5003279;28;20038;-90
2022/09/07 07:46:24;;;;;;;3.17;1.90;;;23.00;99.90;;;-144.05;59.27;125687.94;5002426;28;20031;-92
2022/09/07 07:48:52;;;;;;;4.50;1.77;;;23.30;99.90;;;-144.05;59.77;125687.94;5018825;28;20026;-89
2022/09/07 07:51:19;;;;;;;5.15;1.27;;;23.30;99.90;;;-144.05;59.08;125687.94;5002053;28;20058;-91
2022/09/07 07:53:45;;;;;;;3.95;1.05;;;23.30;99.90;;;-144.05;60.78;125687.94;5002162;28;20088;-87
2022/09/07 07:56:13;;;;;;;1.75;1.00;;;23.50;99.90;;;-144.05;58.02;125687.94;5001531;28;20038;-89
2022/09/07 07:58:45;;;;;;;2.85;1.05;;;23.70;99.90;;;-144.05;58.81;125687.94;5000744;28;20498;-90
2022/09/07 08:01:17;;;;;;;2.05;1.10;;;23.50;99.90;;;-144.05;59.48;125687.94;5016563;28;20184;-87
2022/09/07 08:03:48;;;;;;;1.80;0.80;;;23.00;99.90;;;-144.05;60.58;125687.94;5001828;28;20061;-88
2022/09/07 08:06:18;;;;;;;4.47;1.20;;;22.60;99.90;;;-144.05;61.14;125687.94;5005296;28;20022;-91
2022/09/07 08:08:45;;;;;;;3.00;1.20;;;22.50;99.90;;;-144.05;60.99;125687.94;5004480;28;20445;-89
2022/09/07 08:11:17;;;;;;;4.05;1.70;;;22.60;99.90;;;-144.05;59.94;125687.94;5001055;28;20034;-89
2022/09/07 08:13:48;;;;;;;3.65;1.40;;;22.80;99.90;;;-144.05;60.65;125687.94;4999464;28;20100;-90
2022/09/07 08:16:16;;;;;;;2.20;1.58;;;23.00;99.90;;;-144.05;58.42;125687.94;4999990;28;20026;-90
2022/09/07 08:18:42;;;;;;;3.47;1.17;;;23.30;99.90;;;-144.05;57.58;125687.94;5000685;28;20030;-89
2022/09/07 08:21:14;;;;;;;3.70;1.27;;;23.80;99.90;;;-144.05;55.52;125687.94;5017022;28;20376;-87
2022/09/07 08:23:40;;;;;;;3.72;1.30;;;24.10;99.90;;;-144.05;56.38;125687.94;5001153;28;20030;-89
2022/09/07 08:26:08;;;;;;;3.33;1.40;;;24.50;99.90;;;-144.05;54.13;125687.94;5017732;28;20057;-87
2022/09/07 08:28:44;;;;;;;1.77;1.17;;;24.40;99.90;;;-144.05;54.68;125687.94;5018057;28;20037;-86
2022/09/07 08:31:15;;;;;;;2.05;1.05;;;24.70;99.90;;;-144.05;52.96;125687.94;5000209;28;20138;-88
2022/09/07 08:33:41;;;;;;;3.17;1.48;;;25.00;99.90;;;-144.05;52.48;125687.94;4999520;28;20033;-87
2022/09/07 08:36:19;;;;;;;2.05;1.15;;;24.80;99.90;;;-144.05;53.98;125687.94;5002228;28;20049;-87
2022/09/07 08:38:46;;;;;;;7.50;1.60;;;24.50;99.90;;;-144.05;55.23;125687.94;5002945;28;19920;-89
2022/09/07 08:42:08;;;;;;;3.42;1.15;;;23.90;99.90;;;-144.05;56.58;125687.94;5015682;28;20118;-89
2022/09/07 08:44:46;;;;;;;3.75;1.33;;;23.50;99.90;;;-144.05;58.38;125687.94;5015519;28;20027;-90
2022/09/07 08:47:45;;;;;;;3.38;1.10;;;23.10;99.90;;;-144.05;59.97;125687.94;5015456;28;20034;-90
2022/09/07 08:50:20;;;;;;;5.07;1.10;;;22.70;99.90;;;-144.05;59.23;125687.94;4997319;28;20045;-90
2022/09/07 08:53:13;;;;;;;2.85;1.27;;;22.70;99.90;;;-144.05;59.09;125687.94;4998784;28;20074;-90
2022/09/07 08:55:53;;;;;;;2.45;1.15;;;22.60;99.90;;;-144.05;58.75;125687.94;5000016;28;20030;-89
2022/09/07 08:58:47;;;;;;;1.85;1.10;;;22.90;99.90;;;-144.05;56.48;125687.94;5000850;28;20046;-89
2022/09/07 09:01:16;;;;;;;1.48;1.20;;;23.20;99.90;;;-144.05;56.38;125687.94;5016691;28;20030;-89
2022/09/07 09:03:43;;;;;;;3.15;1.27;;;23.20;99.90;;;-144.05;55.99;125687.94;5016688;28;20087;-89
2022/09/07 09:06:28;;;;;;;2.58;1.13;;;23.20;99.90;;;-144.05;57.28;125687.94;5000625;28;20121;-87
2022/09/07 09:09:54;;;;;;;3.38;1.30;;;23.50;99.90;;;-144.05;55.86;125687.94;5001463;28;20031;-86
2022/09/07 09:13:05;;;;;;;3.65;1.25;;;23.80;99.90;;;-144.05;55.13;125687.94;4998378;28;20490;-89
2022/09/07 09:16:28;;;;;;;2.03;1.00;;;23.80;99.90;;;-144.05;54.97;125687.94;5002512;28;20441;-89
2022/09/07 09:19:50;;;;;;;2.75;1.13;;;24.00;99.90;;;-144.05;52.07;125687.94;5001467;28;20034;-90
2022/09/07 09:22:27;;;;;;;2.63;1.10;;;24.00;99.90;;;-144.05;52.21;125687.94;5002206;28;20130;-85
2022/09/07 09:25:21;;;;;;;2.40;1.08;;;24.10;99.90;;;-144.05;51.15;125687.94;5015485;28;20127;-87
2022/09/07 09:27:49;;;;;;;2.45;1.00;;;24.20;99.90;;;-144.05;51.72;125687.94;5000540;28;20023;-89
2022/09/07 09:30:23;;;;;;;1.92;1.10;;;24.20;99.90;;;-144.05;50.49;125687.94;4999721;28;20033;-91
2022/09/07 09:33:20;;;;;;;4.72;1.27;;;24.50;99.90;;;-144.05;49.64;125687.94;4999429;28;20054;-87
2022/09/07 09:35:51;;;;;;;3.67;1.30;;;25.30;99.90;;;-144.05;47.70;125687.94;5015386;28;20066;-89
2022/09/07 09:38:42;;;;;;;2.70;1.25;;;25.60;99.90;;;-144.05;46.55;125687.94;4998705;28;20030;-90
2022/09/07 09:41:14;;;;;;;2.42;1.00;;;25.70;99.90;;;-144.05;47.20;125687.94;5015106;28;20066;-90
2022/09/07 09:43:55;;;;;;;2.72;1.40;;;25.60;99.90;;;-144.05;46.62;125687.94;4998199;28;20050;-88
2022/09/07 09:46:36;;;;;;;2.33;1.20;;;25.60;99.90;;;-144.05;46.49;125687.94;5000838;28;20486;-91
2022/09/07 09:49:23;;;;;;;3.70;1.45;;;25.60;99.90;;;-144.05;46.78;125687.94;5015272;28;20034;-88
2022/09/07 09:51:55;;;;;;;3.05;1.52;;;25.70;99.90;;;-144.05;47.03;125687.94;4998359;28;20030;-88
2022/09/07 09:54:56;;;;;;;4.65;1.40;;;26.10;99.90;;;-144.05;46.39;125687.94;5015008;28;20506;-89
2022/09/07 09:57:56;;;;;;;5.55;1.48;;;26.70;99.90;;;-144.05;45.09;125687.94;4986746;28;20141;-88
2022/09/07 10:00:25;;;;;;;2.78;1.42;;;27.10;99.90;;;-144.05;44.75;125687.94;4998789;28;20038;-86
2022/09/07 10:03:15;;;;;;;2.15;1.17;;;27.30;99.90;;;-144.05;43.53;125687.94;4999377;28;20042;-87
2022/09/07 10:05:47;;;;;;;2.28;1.42;;;27.40;99.90;;;-144.05;43.40;125687.94;4998725;28;20034;-89
2022/09/07 10:08:27;;;;;;;1.98;1.40;;;27.60;99.90;;;-144.05;44.11;125687.94;4997625;28;20030;-89
2022/09/07 10:11:01;;;;;;;4.43;1.40;;;27.40;99.90;;;-144.05;44.26;125687.94;4998737;28;20030;-89
2022/09/07 10:13:56;;;;;;;2.97;1.42;;;26.90;99.90;;;-144.05;45.11;125687.94;4999199;28;20038;-88
2022/09/07 10:16:49;;;;;;;2.97;1.73;;;26.50;99.90;;;-144.05;46.09;125687.94;4992273;28;20070;-89
2022/09/07 10:19:39;;;;;;;5.75;1.75;;;26.30;99.90;;;-144.05;45.85;125687.94;4997476;28;20380;-89
2022/09/07 10:22:37;;;;;;;3.30;1.55;;;26.20;99.90;;;-144.05;46.31;125687.94;4998246;28;20026;-89
2022/09/07 10:25:36;;;;;;;2.88;1.40;;;26.10;99.90;;;-144.05;46.13;125687.94;5014010;28;20486;-89
2022/09/07 10:28:11;;;;;;;3.10;1.80;;;26.40;99.90;;;-144.05;45.54;125687.94;5001773;28;20382;-88
2022/09/07 10:31:24;;;;;;;3.90;1.65;;;26.40;99.90;;;-144.05;44.63;125687.94;4997059;28;20038;-89
2022/09/07 10:34:07;;;;;;;2.70;1.83;;;26.50;99.90;;;-144.05;44.80;125687.94;4997402;28;20065;-91
2022/09/07 10:36:54;;;;;;;2.38;1.70;;;26.60;99.90;;;-144.05;44.80;125687.94;4998672;28;20406;-88
2022/09/07 10:39:41;;;;;;;2.70;1.75;;;26.70;99.90;;;-144.05;45.54;125687.94;4997034;28;20026;-90